Strona główna
METAR-TAF:

METAR-TAF

Lotnisko :

Port lotniczy Turyn

Turyn, Włochy

Szerokość geograficzna: 45-13N, Długość geograficzna: 007-39E, wysokość: 301 m

Aktualna obserwacja pogody

Raport powstał 35 minut temu, godzina 17:20 UTC
Wiatr 4 kt od północ
Temperatura 3°C
Wilgotność 52%
Ciśnienie 1016 hPa
Widzialność 10 km lub więcej
Brak chmur poniżej 1500 m i brak chmur cumulonimbus

METAR: LIMF 271720Z 01004KT CAVOK 03/M06 Q1016

czas: 18:55 (17:55 UTC)

Prognoza

Raport powstał 55 minut temu, godzina 17:00 UTC
Prognoza ważna od 27 godzina 18 UTC do 28 godzina 18 UTC
Wiatr 5 kt z kierunków zmiennych
Widzialność 10 km lub więcej
Brak chmur poniżej 1500 m i brak chmur cumulonimbus

TAF: LIMF 271700Z 2718/2818 VRB05KT CAVOK

Obserwacja i prognoza pogody dla ponad 4000 lotnisk (raport METAR i TAF).

Dostępne stacje oznaczono żółtymi i czerwonymi punktami na mapie.

Najedź kursorem aby zobaczyć nazwę stacji.

Kliknij aby zobaczyć obserwacje i prognozy pogody.

Aby zmienić mapę: kliknij na zielony przycisk z czarnym krzyżykiem, aby powiększyć; na zielony przycisk z myślnikiem, aby pomniejszyć; na zielone strzałki, aby przejść do map sąsiednich.


METAR-TAF: